Time;durP1;ratioP1;P1;durP2;ratioP2;P2;SDS_P1;SDS_P2;PMS_P1;PMS_P2;Temp;Humidity;BMP_temperature;BMP_pressure;BME280_temperature;BME280_humidity;BME280_pressure;Samples;Min_cycle;Max_cycle;Signal;HPM_P1;HPM_P2
2023/05/21 00:01:38;;;;;;;18.15;9.68;;;;;;;12.63;80.60;102167.63;6099726;19;20065;-77
2023/05/21 00:03:44;;;;;;;15.32;8.98;;;;;;;12.67;80.37;102182.47;6098261;19;20011;-77
2023/05/21 00:05:53;;;;;;;12.00;8.07;;;;;;;12.62;80.82;102176.44;6099093;19;20014;-77
2023/05/21 00:07:58;;;;;;;12.35;7.95;;;;;;;12.62;80.65;102173.81;6100063;19;20466;-76
2023/05/21 00:10:03;;;;;;;12.98;8.05;;;;;;;12.60;80.95;102173.84;6099682;19;20007;-77
2023/05/21 00:12:10;;;;;;;11.52;8.32;;;;;;;12.65;80.95;102171.94;6098285;19;20028;-77
2023/05/21 00:14:15;;;;;;;15.02;8.85;;;;;;;12.64;81.66;102164.09;6099082;19;20014;-76
2023/05/21 00:16:27;;;;;;;12.68;7.55;;;;;;;12.63;81.12;102160.56;6098978;19;20844;-76
2023/05/21 00:18:34;;;;;;;11.13;7.40;;;;;;;12.58;81.99;102166.88;6099291;19;20081;-76
2023/05/21 00:20:44;;;;;;;12.77;8.38;;;;;;;12.54;81.82;102160.81;6098768;19;20039;-77
2023/05/21 00:22:52;;;;;;;13.05;8.13;;;;;;;12.56;82.07;102164.28;6096340;19;20003;-77
2023/05/21 00:24:58;;;;;;;14.00;8.43;;;;;;;12.54;81.78;102160.81;6098619;19;20014;-77
2023/05/21 00:27:06;;;;;;;11.95;7.82;;;;;;;12.55;82.47;102162.53;6098638;19;20023;-77
2023/05/21 00:29:15;;;;;;;11.70;8.00;;;;;;;12.60;82.61;102158.00;6099136;19;20022;-77
2023/05/21 00:31:25;;;;;;;13.40;8.73;;;;;;;12.58;82.69;102154.53;6106173;19;20051;-77
2023/05/21 00:33:33;;;;;;;11.93;7.85;;;;;;;12.61;81.90;102159.75;6100766;19;20011;-78
2023/05/21 00:35:38;;;;;;;11.43;7.40;;;;;;;12.63;82.61;102149.16;6105983;19;20515;-77
2023/05/21 00:37:44;;;;;;;10.57;7.28;;;;;;;12.62;82.37;102150.06;6104785;19;20042;-77
2023/05/21 00:39:54;;;;;;;13.20;8.82;;;;;;;12.63;82.54;102155.28;6104201;19;20012;-77
2023/05/21 00:42:04;;;;;;;14.50;9.15;;;;;;;12.61;82.36;102153.59;6104538;19;20472;-77
2023/05/21 00:44:12;;;;;;;11.30;7.50;;;;;;;12.59;83.01;102151.03;6102747;19;20011;-76
2023/05/21 00:46:21;;;;;;;12.18;7.38;;;;;;;12.62;82.53;102148.28;6104190;19;20030;-76
2023/05/21 00:48:28;;;;;;;11.90;7.93;;;;;;;12.66;82.91;102147.28;6102602;19;20127;-77
2023/05/21 00:50:34;;;;;;;14.50;7.88;;;;;;;12.67;83.04;102153.44;6105193;19;20581;-76
2023/05/21 00:52:44;;;;;;;12.07;7.95;;;;;;;12.68;83.13;102144.63;6100371;19;20017;-77
2023/05/21 00:54:53;;;;;;;12.63;8.27;;;;;;;12.65;83.16;102142.06;6103079;19;20018;-77
2023/05/21 00:56:58;;;;;;;12.77;7.47;;;;;;;12.65;83.89;102142.94;6101874;19;20039;-77
2023/05/21 00:59:04;;;;;;;12.32;8.02;;;;;;;12.72;83.31;102151.53;6102627;19;20448;-76
2023/05/21 01:01:12;;;;;;;14.18;8.48;;;;;;;12.68;83.52;102142.84;6100433;19;20357;-78
2023/05/21 01:03:20;;;;;;;12.25;8.13;;;;;;;12.73;83.56;102146.22;6104792;19;20010;-78
2023/05/21 01:05:26;;;;;;;15.10;7.38;;;;;;;12.76;83.60;102139.13;6101197;19;20006;-78
2023/05/21 01:07:38;;;;;;;13.15;8.20;;;;;;;12.77;83.82;102138.19;6101000;19;20465;-80
2023/05/21 01:09:44;;;;;;;13.57;8.20;;;;;;;12.77;83.87;102141.72;6104092;19;20474;-77
2023/05/21 01:11:53;;;;;;;13.10;8.45;;;;;;;12.80;84.06;102138.13;6104481;19;20148;-78
2023/05/21 01:13:59;;;;;;;14.05;8.25;;;;;;;12.77;83.91;102135.56;6098875;19;20479;-78
2023/05/21 01:16:08;;;;;;;18.50;9.05;;;;;;;12.83;83.54;102140.69;6101563;19;20018;-79
2023/05/21 01:18:15;;;;;;;18.27;9.10;;;;;;;12.83;83.51;102131.00;6084170;19;20054;-79
2023/05/21 01:20:25;;;;;;;15.15;9.02;;;;;;;12.86;84.07;102136.16;6103081;19;20002;-78
2023/05/21 01:22:38;;;;;;;16.73;9.68;;;;;;;12.82;84.17;102124.00;6101822;19;20014;-78
2023/05/21 01:24:47;;;;;;;17.65;9.95;;;;;;;12.85;83.97;102128.28;6104668;19;20431;-79
2023/05/21 01:26:52;;;;;;;14.32;9.32;;;;;;;12.83;83.81;102132.78;6104126;19;20006;-78
2023/05/21 01:29:01;;;;;;;18.55;10.00;;;;;;;12.80;84.08;102127.59;6102333;19;20014;-78
2023/05/21 01:31:18;;;;;;;18.83;10.80;;;;;;;12.81;84.04;102131.94;6104312;19;20018;-78
2023/05/21 01:33:34;;;;;;;20.58;10.68;;;;;;;12.78;84.07;102126.75;6103546;19;20011;-79
2023/05/21 01:35:46;;;;;;;17.05;9.88;;;;;;;12.77;84.09;102125.91;6101083;19;20021;-79
2023/05/21 01:37:57;;;;;;;17.60;10.75;;;;;;;12.81;83.88;102131.94;6105000;19;20007;-80
2023/05/21 01:40:11;;;;;;;18.67;11.05;;;;;;;12.82;84.13;102131.91;6102785;19;20027;-78
2023/05/21 01:42:22;;;;;;;24.83;11.10;;;;;;;12.80;84.03;102132.88;6102128;19;20471;-78
2023/05/21 01:44:29;;;;;;;17.15;11.30;;;;;;;12.69;84.74;102136.66;6101812;19;20574;-79
2023/05/21 01:46:38;;;;;;;22.20;12.38;;;;;;;12.67;85.00;102138.47;6105338;19;20038;-78
2023/05/21 01:48:48;;;;;;;21.95;12.27;;;;;;;12.62;85.09;102132.47;6104597;19;20002;-79
2023/05/21 01:50:54;;;;;;;21.20;12.30;;;;;;;12.60;85.55;102129.00;6105247;19;20487;-79
2023/05/21 01:53:02;;;;;;;20.30;12.02;;;;;;;12.62;85.79;102135.09;6099613;19;20006;-78
2023/05/21 01:55:12;;;;;;;19.33;12.68;;;;;;;12.64;85.11;102129.81;6104887;19;20911;-79
2023/05/21 01:57:18;;;;;;;24.05;12.93;;;;;;;12.68;85.51;102134.91;6105919;19;20010;-78
2023/05/21 01:59:23;;;;;;;23.33;12.48;;;;;;;12.65;85.43;102124.47;6108662;19;20003;-78
2023/05/21 02:01:29;;;;;;;22.90;12.32;;;;;;;12.66;85.89;102128.81;6104909;19;20021;-79
2023/05/21 02:03:34;;;;;;;23.77;13.32;;;;;;;12.68;85.61;102128.78;6101461;19;20046;-81
2023/05/21 02:05:41;;;;;;;22.92;13.23;;;;;;;12.70;85.66;102130.47;6106030;19;20585;-79
2023/05/21 02:07:52;;;;;;;23.88;12.55;;;;;;;12.76;85.52;102136.47;6104300;19;20017;-80
2023/05/21 02:10:00;;;;;;;24.98;13.52;;;;;;;12.73;85.33;102130.38;6109097;19;20018;-80
2023/05/21 02:12:08;;;;;;;22.25;12.88;;;;;;;12.74;85.12;102129.50;6106223;19;20055;-78
2023/05/21 02:14:15;;;;;;;23.30;12.60;;;;;;;12.74;85.63;102132.13;6107685;19;20380;-78
2023/05/21 02:16:26;;;;;;;33.03;14.57;;;;;;;12.74;86.04;102118.06;6105919;19;20508;-79
2023/05/21 02:18:32;;;;;;;22.35;13.45;;;;;;;12.77;85.68;102119.72;6103228;19;20479;-79
2023/05/21 02:20:38;;;;;;;25.38;12.90;;;;;;;12.77;85.93;102120.63;6102671;19;20003;-79
2023/05/21 02:22:45;;;;;;;26.00;14.25;;;;;;;12.79;85.61;102123.19;6102723;19;20058;-78
2023/05/21 02:24:53;;;;;;;27.13;13.77;;;;;;;12.83;85.74;102124.84;6101994;19;20026;-79
2023/05/21 02:26:58;;;;;;;26.05;13.27;;;;;;;12.81;85.83;102122.25;6103817;19;20482;-79
2023/05/21 02:29:08;;;;;;;21.23;12.80;;;;;;;12.88;85.46;102117.66;6100779;19;20694;-79
2023/05/21 02:31:16;;;;;;;24.17;13.45;;;;;;;12.90;85.48;102124.63;6097073;19;20598;-78
2023/05/21 02:33:22;;;;;;;24.15;13.13;;;;;;;12.92;85.49;102121.94;6103223;19;20002;-80
2023/05/21 02:35:31;;;;;;;24.60;12.60;;;;;;;12.93;85.56;102123.69;6075952;19;20019;-78
2023/05/21 02:37:39;;;;;;;22.73;13.65;;;;;;;12.91;85.80;102123.72;6101286;19;20017;-80
2023/05/21 02:39:45;;;;;;;22.98;13.50;;;;;;;12.92;85.61;102124.56;6100081;19;20054;-78
2023/05/21 02:41:50;;;;;;;26.90;14.57;;;;;;;12.91;85.92;102123.72;6100292;19;20011;-79
2023/05/21 02:43:57;;;;;;;25.70;13.15;;;;;;;12.92;86.09;102122.78;6100800;19;20014;-79
2023/05/21 02:46:08;;;;;;;22.50;13.25;;;;;;;12.99;85.24;102131.41;6078832;19;20015;-78
2023/05/21 02:48:13;;;;;;;23.60;12.38;;;;;;;13.01;85.39;102124.31;6102237;19;20422;-79
2023/05/21 02:50:21;;;;;;;23.42;13.25;;;;;;;13.00;86.00;102117.28;6102676;19;20693;-79
2023/05/21 02:52:29;;;;;;;23.55;13.05;;;;;;;13.07;85.54;102118.84;6097190;19;20009;-80
2023/05/21 02:54:35;;;;;;;20.95;12.27;;;;;;;13.09;85.30;102118.81;6100642;19;20038;-79
2023/05/21 02:56:41;;;;;;;21.90;13.00;;;;;;;13.09;85.72;102111.75;6098637;19;20030;-79
2023/05/21 02:58:46;;;;;;;23.05;12.88;;;;;;;13.08;85.82;102115.28;6097300;19;20041;-77
2023/05/21 03:00:56;;;;;;;27.98;12.23;;;;;;;13.08;85.84;102115.28;6100560;19;20122;-76
2023/05/21 03:03:04;;;;;;;25.40;13.15;;;;;;;13.11;85.56;102114.31;6097082;19;20013;-78
2023/05/21 03:05:10;;;;;;;22.52;11.70;;;;;;;13.16;85.76;102115.03;6079064;19;20070;-78
2023/05/21 03:07:16;;;;;;;23.65;12.65;;;;;;;13.17;85.84;102117.66;6102476;19;20018;-78
2023/05/21 03:09:26;;;;;;;22.23;12.32;;;;;;;13.18;85.62;102114.06;6099017;19;20051;-79
2023/05/21 03:11:33;;;;;;;25.30;12.43;;;;;;;13.20;85.65;102111.41;6099110;19;20447;-79
2023/05/21 03:13:41;;;;;;;19.25;10.90;;;;;;;13.20;85.68;102118.47;6100593;19;20444;-79
2023/05/21 03:15:48;;;;;;;19.75;11.32;;;;;;;13.22;85.78;102120.16;6100358;19;20516;-79
2023/05/21 03:17:54;;;;;;;17.15;10.15;;;;;;;13.25;85.31;102112.13;6099551;19;20483;-79
2023/05/21 03:20:04;;;;;;;19.75;11.32;;;;;;;13.31;85.47;102111.09;6103813;19;20050;-78
2023/05/21 03:22:12;;;;;;;17.33;9.48;;;;;;;13.33;85.37;102104.88;6102867;19;20342;-79
2023/05/21 03:24:17;;;;;;;17.20;9.35;;;;;;;13.36;85.10;102106.53;6102718;19;20039;-79
2023/05/21 03:26:22;;;;;;;14.50;9.57;;;;;;;13.34;85.44;102105.72;6101165;19;20010;-79
2023/05/21 03:28:38;;;;;;;17.45;10.27;;;;;;;13.33;85.63;102104.88;6101915;19;20703;-78
2023/05/21 03:30:45;;;;;;;14.57;8.80;;;;;;;13.33;85.26;102104.00;6099799;19;20017;-77
2023/05/21 03:32:50;;;;;;;15.68;9.82;;;;;;;13.36;85.29;102112.69;6100961;19;20002;-80
2023/05/21 03:35:01;;;;;;;17.35;9.52;;;;;;;13.39;85.34;102114.34;6104131;19;20388;-80
2023/05/21 03:37:07;;;;;;;15.02;9.00;;;;;;;13.41;85.30;102104.63;6082858;19;20006;-79
2023/05/21 03:39:14;;;;;;;17.48;9.18;;;;;;;13.39;85.16;102106.44;6103132;19;20038;-80
2023/05/21 03:41:27;;;;;;;17.23;10.07;;;;;;;13.41;85.27;102107.25;6104106;19;20003;-79
2023/05/21 03:43:32;;;;;;;14.82;9.35;;;;;;;13.42;85.44;102097.56;6100024;19;20006;-79
2023/05/21 03:45:39;;;;;;;14.98;8.75;;;;;;;13.43;85.11;102100.16;6101661;19;20356;-80
2023/05/21 03:47:48;;;;;;;13.52;9.00;;;;;;;13.44;85.16;102104.50;6080059;19;20014;-78
2023/05/21 03:49:56;;;;;;;11.68;7.85;;;;;;;13.45;85.36;102102.72;6101741;19;20470;-80
2023/05/21 03:52:03;;;;;;;13.93;8.27;;;;;;;13.46;85.17;102107.97;6097712;19;20100;-78
2023/05/21 03:54:09;;;;;;;13.85;7.68;;;;;;;13.47;85.30;102101.78;6095742;19;20559;-78
2023/05/21 03:56:20;;;;;;;12.50;7.63;;;;;;;13.45;85.23;102103.59;6101257;19;20427;-79
2023/05/21 03:58:26;;;;;;;14.50;8.00;;;;;;;13.44;85.72;102098.38;6100552;19;19998;-80
2023/05/21 04:00:36;;;;;;;14.80;8.10;;;;;;;13.47;85.76;102100.91;6099688;19;20416;-76
2023/05/21 04:02:42;;;;;;;12.10;7.63;;;;;;;13.46;85.63;102102.69;6096072;19;20002;-76
2023/05/21 04:04:47;;;;;;;12.20;8.10;;;;;;;13.50;85.57;102096.38;6097947;19;20039;-77
2023/05/21 04:06:55;;;;;;;12.27;7.72;;;;;;;13.53;85.42;102101.59;6097785;19;20491;-76
2023/05/21 04:09:05;;;;;;;12.20;7.13;;;;;;;13.52;85.38;102106.91;6094973;19;20403;-79
2023/05/21 04:11:11;;;;;;;14.68;8.85;;;;;;;13.54;85.25;102103.31;6099388;19;20174;-80
2023/05/21 04:13:16;;;;;;;11.80;7.45;;;;;;;13.54;85.42;102102.44;6097867;19;20547;-79
2023/05/21 04:15:24;;;;;;;11.40;7.55;;;;;;;13.51;85.45;102100.78;6098052;19;20526;-78
2023/05/21 04:17:34;;;;;;;11.63;7.77;;;;;;;13.51;85.57;102098.13;6094443;19;20015;-79
2023/05/21 04:19:40;;;;;;;11.30;7.25;;;;;;;13.52;85.67;102105.13;6096075;19;20324;-80
2023/05/21 04:21:45;;;;;;;11.23;7.05;;;;;;;13.52;85.47;102102.47;6100701;19;20016;-79
2023/05/21 04:23:56;;;;;;;11.80;7.10;;;;;;;13.59;85.52;102096.09;6096915;19;20022;-79
2023/05/21 04:26:04;;;;;;;10.65;7.40;;;;;;;13.54;85.72;102100.66;6097941;19;20006;-79
2023/05/21 04:28:19;;;;;;;13.20;7.80;;;;;;;13.51;85.45;102099.91;6098952;19;20010;-79
2023/05/21 04:30:26;;;;;;;13.95;8.00;;;;;;;13.51;85.88;102100.78;6099708;19;20013;-79
2023/05/21 04:32:33;;;;;;;14.07;8.07;;;;;;;13.51;85.65;102111.34;6101143;19;20459;-79
2023/05/21 04:34:41;;;;;;;11.20;7.20;;;;;;;13.51;85.80;102108.69;6099321;19;20194;-79
2023/05/21 04:36:47;;;;;;;11.02;7.22;;;;;;;13.54;85.92;102105.09;6098560;19;20073;-80
2023/05/21 04:38:53;;;;;;;11.23;7.55;;;;;;;13.63;85.37;102101.28;6098338;19;20012;-79
2023/05/21 04:41:02;;;;;;;11.88;7.65;;;;;;;13.63;85.31;102103.91;6099884;19;20487;-80
2023/05/21 04:43:11;;;;;;;11.55;7.28;;;;;;;13.66;85.09;102107.31;6100788;19;20396;-79
2023/05/21 04:45:17;;;;;;;12.48;8.02;;;;;;;13.72;85.09;102103.63;6097998;19;20128;-80
2023/05/21 04:47:22;;;;;;;12.07;8.60;;;;;;;13.68;84.89;102101.97;6099212;19;20011;-79
2023/05/21 04:49:29;;;;;;;10.48;7.50;;;;;;;13.73;84.98;102102.69;6090637;19;20078;-80
2023/05/21 04:51:36;;;;;;;11.20;7.18;;;;;;;13.73;84.76;102105.34;6097174;19;20199;-80
2023/05/21 04:53:41;;;;;;;13.38;8.10;;;;;;;13.72;84.78;102111.56;6092763;19;20014;-80
2023/05/21 04:55:46;;;;;;;11.77;7.80;;;;;;;13.74;85.01;102101.78;6097269;19;20030;-81
2023/05/21 04:57:52;;;;;;;10.48;7.35;;;;;;;13.80;84.52;102098.94;6102008;19;20462;-81
2023/05/21 05:00:04;;;;;;;12.57;8.05;;;;;;;13.84;84.37;102108.47;6101822;19;20017;-80
2023/05/21 05:02:09;;;;;;;12.07;7.95;;;;;;;13.82;84.40;102103.25;6100682;19;20038;-80
2023/05/21 05:04:15;;;;;;;12.20;7.93;;;;;;;13.82;84.25;102097.09;6101979;19;20003;-80
2023/05/21 05:06:21;;;;;;;11.60;7.07;;;;;;;13.88;84.39;102091.63;6102386;19;20015;-80
2023/05/21 05:08:26;;;;;;;10.65;7.13;;;;;;;13.92;84.16;102098.50;6100436;19;20010;-80
2023/05/21 05:10:33;;;;;;;11.40;7.30;;;;;;;13.95;83.87;102095.75;6102126;19;20007;-78
2023/05/21 05:12:38;;;;;;;11.57;7.35;;;;;;;13.98;84.12;102097.44;6102226;19;20006;-78
2023/05/21 05:14:46;;;;;;;12.77;8.00;;;;;;;13.97;83.91;102091.28;6101767;19;20011;-80
2023/05/21 05:16:58;;;;;;;12.18;7.50;;;;;;;14.07;83.90;102093.63;6101231;19;20030;-79
2023/05/21 05:19:03;;;;;;;13.93;8.60;;;;;;;14.10;84.02;102093.50;6109901;19;20003;-80
2023/05/21 05:21:11;;;;;;;13.40;8.05;;;;;;;14.11;83.60;102097.88;6102765;19;20038;-79
2023/05/21 05:23:16;;;;;;;12.48;8.50;;;;;;;14.10;83.83;102094.38;6101689;19;20035;-79
2023/05/21 05:25:22;;;;;;;13.38;8.48;;;;;;;14.14;83.56;102092.47;6099936;19;20495;-80
2023/05/21 05:27:30;;;;;;;12.85;8.70;;;;;;;14.20;83.01;102093.13;6096258;19;20046;-78
2023/05/21 05:29:35;;;;;;;13.57;8.55;;;;;;;14.25;82.98;102090.31;6080666;19;20554;-78
2023/05/21 05:31:41;;;;;;;12.00;7.78;;;;;;;14.23;83.11;102082.44;6103809;19;20063;-79
2023/05/21 05:33:49;;;;;;;13.65;8.45;;;;;;;14.29;83.14;102086.63;6101298;19;20075;-78
2023/05/21 05:35:58;;;;;;;12.90;8.65;;;;;;;14.28;82.66;102091.06;6103060;19;20015;-80
2023/05/21 05:38:03;;;;;;;13.68;8.40;;;;;;;14.28;83.12;102080.50;6100212;19;20007;-79
2023/05/21 05:40:09;;;;;;;13.63;8.73;;;;;;;14.37;82.76;102079.28;6101361;19;20013;-79
2023/05/21 05:42:14;;;;;;;19.92;8.95;;;;;;;14.37;82.94;102079.28;6080951;19;20039;-79
2023/05/21 05:44:20;;;;;;;16.40;9.30;;;;;;;14.45;82.52;102076.34;6094988;19;20010;-80
2023/05/21 05:46:26;;;;;;;13.07;8.05;;;;;;;14.47;82.50;102066.59;6100662;19;20045;-79
2023/05/21 05:48:32;;;;;;;11.80;7.88;;;;;;;14.57;82.33;102081.25;6099326;19;20002;-78
2023/05/21 05:50:41;;;;;;;14.68;9.25;;;;;;;14.57;81.92;102067.16;6096308;19;20002;-80
2023/05/21 05:52:46;;;;;;;15.88;9.82;;;;;;;14.58;81.81;102071.50;6092104;19;20687;-80
2023/05/21 05:54:58;;;;;;;16.02;9.27;;;;;;;14.63;82.28;102073.06;6083514;19;20034;-78
2023/05/21 05:57:03;;;;;;;13.85;8.70;;;;;;;14.65;81.79;102067.72;6097151;19;20010;-79
2023/05/21 05:59:08;;;;;;;15.52;9.82;;;;;;;14.76;81.79;102064.66;6099097;19;20007;-79
2023/05/21 06:01:15;;;;;;;15.80;9.43;;;;;;;14.84;80.95;102063.44;6096051;19;20075;-79
2023/05/21 06:03:20;;;;;;;13.98;9.13;;;;;;;14.92;81.08;102066.66;6098766;19;20033;-79
2023/05/21 06:05:26;;;;;;;14.10;9.27;;;;;;;15.02;80.88;102074.25;6093839;19;20374;-78
2023/05/21 06:07:33;;;;;;;18.33;9.52;;;;;;;15.09;80.82;102076.59;6100145;19;20003;-79
2023/05/21 06:09:39;;;;;;;14.35;9.45;;;;;;;15.21;80.19;102083.16;6094909;19;20524;-79
2023/05/21 06:11:45;;;;;;;15.63;9.10;;;;;;;15.26;79.81;102075.91;6100247;19;20118;-79
2023/05/21 06:13:50;;;;;;;17.08;9.85;;;;;;;15.23;79.62;102069.88;6097711;19;20006;-79
2023/05/21 06:15:57;;;;;;;15.38;10.55;;;;;;;15.19;79.74;102079.72;6095281;19;20048;-80
2023/05/21 06:18:02;;;;;;;18.05;10.80;;;;;;;15.24;79.82;102075.09;6095680;19;20812;-80
2023/05/21 06:20:11;;;;;;;17.10;9.65;;;;;;;15.29;79.71;102074.91;6095471;19;20014;-79
2023/05/21 06:22:16;;;;;;;13.88;9.07;;;;;;;15.32;79.85;102075.69;6099692;19;20442;-79
2023/05/21 06:24:23;;;;;;;17.60;10.68;;;;;;;15.29;79.18;102085.50;6096275;19;20477;-79
2023/05/21 06:26:30;;;;;;;14.57;9.40;;;;;;;15.42;79.19;102080.59;6099048;19;20002;-80
2023/05/21 06:28:35;;;;;;;15.70;10.57;;;;;;;15.43;79.15;102088.47;6098722;19;20117;-79
2023/05/21 06:30:41;;;;;;;14.57;9.43;;;;;;;15.55;78.66;102084.44;6101126;19;20539;-79
2023/05/21 06:32:46;;;;;;;16.95;10.25;;;;;;;15.66;78.81;102079.56;6098634;19;20014;-79
2023/05/21 06:34:54;;;;;;;17.15;9.80;;;;;;;15.78;78.48;102076.44;6102667;19;20332;-79
2023/05/21 06:37:00;;;;;;;15.60;10.15;;;;;;;15.90;77.99;102076.81;6103289;19;20506;-79
2023/05/21 06:39:05;;;;;;;14.25;8.75;;;;;;;15.92;77.73;102082.94;6102670;19;20027;-78
2023/05/21 06:41:12;;;;;;;17.48;10.00;;;;;;;16.01;77.51;102085.19;6102698;19;20002;-78
2023/05/21 06:43:27;;;;;;;18.98;10.38;;;;;;;15.96;77.23;102081.88;6101651;19;20067;-80
2023/05/21 06:45:32;;;;;;;15.25;10.15;;;;;;;16.01;76.71;102085.19;6094680;19;20007;-82
2023/05/21 06:47:37;;;;;;;14.13;9.07;;;;;;;16.03;76.82;102083.31;6102037;19;20014;-79
2023/05/21 06:49:42;;;;;;;15.57;9.75;;;;;;;16.03;76.54;102083.31;6107118;19;20078;-80
2023/05/21 06:51:49;;;;;;;14.27;9.38;;;;;;;16.21;75.90;102089.59;6103623;19;20273;-80
2023/05/21 06:53:56;;;;;;;19.13;9.18;;;;;;;16.23;75.75;102085.09;6095276;19;20029;-78
2023/05/21 06:56:01;;;;;;;15.05;9.13;;;;;;;16.37;76.00;102081.81;6098044;19;20019;-79
2023/05/21 06:58:09;;;;;;;14.82;9.57;;;;;;;16.52;75.27;102080.28;6099993;19;20048;-78
2023/05/21 07:00:15;;;;;;;14.45;8.50;;;;;;;16.65;74.23;102087.59;6104239;19;20011;-79
2023/05/21 07:02:23;;;;;;;15.68;9.25;;;;;;;16.86;74.05;102087.56;6099508;19;20289;-79
2023/05/21 07:04:34;;;;;;;14.35;8.77;;;;;;;17.04;73.13;102089.34;6100376;19;20014;-80
2023/05/21 07:06:41;;;;;;;12.98;8.00;;;;;;;16.80;72.02;102085.22;6100645;19;20466;-78
2023/05/21 07:08:48;;;;;;;16.40;8.35;;;;;;;16.93;72.47;102086.38;6101069;19;20050;-79
2023/05/21 07:10:56;;;;;;;11.65;7.75;;;;;;;16.89;71.37;102093.59;6100939;19;20123;-78
2023/05/21 07:13:01;;;;;;;12.77;8.18;;;;;;;16.87;71.49;102095.44;6101689;19;20375;-80
2023/05/21 07:15:11;;;;;;;13.98;8.13;;;;;;;16.96;72.03;102091.53;6100609;19;20085;-80
2023/05/21 07:17:16;;;;;;;16.27;8.40;;;;;;;16.88;71.51;102091.03;6096940;19;20025;-76
2023/05/21 07:19:23;;;;;;;16.40;8.18;;;;;;;16.96;71.79;102088.00;6099283;19;20020;-76
2023/05/21 07:21:31;;;;;;;15.55;7.97;;;;;;;16.87;71.26;102097.25;6090085;19;20050;-76
2023/05/21 07:23:36;;;;;;;14.77;8.02;;;;;;;16.94;70.92;102093.38;6098043;19;20014;-78
2023/05/21 07:25:42;;;;;;;13.23;8.20;;;;;;;17.07;70.56;102097.19;6093242;19;20020;-76
2023/05/21 07:27:47;;;;;;;11.52;7.65;;;;;;;17.08;70.94;102100.69;6091756;19;20015;-76
2023/05/21 07:29:52;;;;;;;16.35;7.90;;;;;;;17.13;70.99;102097.81;6094445;19;20014;-76
2023/05/21 07:32:02;;;;;;;14.82;8.35;;;;;;;17.13;70.58;102098.66;6092893;19;20637;-76
2023/05/21 07:34:07;;;;;;;14.20;7.75;;;;;;;17.02;70.72;102101.00;6093650;19;20007;-76
2023/05/21 07:36:13;;;;;;;14.95;8.02;;;;;;;17.06;70.59;102092.81;6096292;19;20017;-76
2023/05/21 07:38:18;;;;;;;12.20;7.43;;;;;;;17.09;69.82;102102.44;6098599;19;20078;-76
2023/05/21 07:40:23;;;;;;;12.25;7.72;;;;;;;17.16;70.41;102097.66;6101773;19;20014;-77
2023/05/21 07:42:30;;;;;;;13.63;7.80;;;;;;;17.26;70.12;102090.97;6099355;19;20336;-76
2023/05/21 07:44:37;;;;;;;14.40;7.95;;;;;;;17.35;69.77;102087.84;6100596;19;20014;-75
2023/05/21 07:46:42;;;;;;;14.82;7.88;;;;;;;17.29;69.63;102091.69;6100817;19;20035;-76
2023/05/21 07:48:50;;;;;;;14.65;8.25;;;;;;;17.39;69.42;102092.09;6102001;19;20038;-76
2023/05/21 07:50:55;;;;;;;16.00;8.82;;;;;;;17.51;68.49;102082.69;6080241;19;20011;-76
2023/05/21 07:53:00;;;;;;;16.15;8.02;;;;;;;17.44;68.63;102082.09;6092065;19;20027;-77
2023/05/21 07:55:06;;;;;;;13.00;7.78;;;;;;;17.59;68.90;102074.28;6101225;19;20014;-76
2023/05/21 07:57:11;;;;;;;21.92;8.25;;;;;;;17.55;67.92;102078.91;6092067;19;20015;-76
2023/05/21 07:59:20;;;;;;;15.18;8.77;;;;;;;17.64;67.93;102082.88;6091256;19;20007;-76
2023/05/21 08:01:26;;;;;;;17.02;8.60;;;;;;;17.66;67.67;102073.91;6089328;19;20614;-75
2023/05/21 08:03:31;;;;;;;14.73;9.10;;;;;;;17.83;67.61;102081.06;6096810;19;20006;-76
2023/05/21 08:05:47;;;;;;;14.25;8.50;;;;;;;18.06;67.50;102073.69;6104818;19;20567;-76
2023/05/21 08:07:52;;;;;;;12.85;8.05;;;;;;;18.18;66.84;102071.25;6098411;19;20006;-75
2023/05/21 08:10:01;;;;;;;13.35;8.40;;;;;;;18.08;66.72;102069.16;6095542;19;20483;-76
2023/05/21 08:12:07;;;;;;;18.58;8.85;;;;;;;18.14;66.25;102076.78;6098187;19;20006;-76
2023/05/21 08:14:15;;;;;;;15.70;8.93;;;;;;;18.23;66.45;102078.13;6100663;19;20635;-75
2023/05/21 08:16:22;;;;;;;14.18;8.05;;;;;;;18.34;66.18;102079.28;6096519;19;20897;-75
2023/05/21 08:18:29;;;;;;;15.20;8.10;;;;;;;18.41;65.64;102075.34;6092507;19;20010;-75
2023/05/21 08:20:34;;;;;;;13.82;8.20;;;;;;;18.37;65.98;102088.88;6095657;19;20592;-78
2023/05/21 08:22:44;;;;;;;17.27;8.52;;;;;;;18.22;65.52;102085.25;6097754;19;20523;-76
2023/05/21 08:24:49;;;;;;;15.73;8.55;;;;;;;18.16;65.31;102082.91;6100816;19;20070;-76
2023/05/21 08:26:58;;;;;;;18.63;7.85;;;;;;;18.21;65.56;102079.06;6100271;19;20006;-77
2023/05/21 08:29:03;;;;;;;15.20;8.38;;;;;;;18.39;65.10;102077.22;6100739;19;20022;-76
2023/05/21 08:31:11;;;;;;;15.30;8.77;;;;;;;18.48;65.42;102072.34;6101150;19;20007;-77
2023/05/21 08:33:17;;;;;;;14.75;8.48;;;;;;;18.52;65.19;102076.56;6101170;19;20014;-75
2023/05/21 08:35:25;;;;;;;14.75;8.05;;;;;;;18.54;65.02;102080.03;6098974;19;20007;-76
2023/05/21 08:37:30;;;;;;;12.85;7.05;;;;;;;18.63;64.76;102077.69;6098273;19;20010;-75
2023/05/21 08:39:38;;;;;;;14.70;8.95;;;;;;;18.70;63.88;102070.25;6100964;19;20468;-77
2023/05/21 08:41:48;;;;;;;14.77;7.75;;;;;;;18.66;64.26;102071.34;6101893;19;20070;-76
2023/05/21 08:43:58;;;;;;;12.63;7.78;;;;;;;18.79;62.82;102066.22;6099708;19;20499;-79
2023/05/21 08:46:06;;;;;;;13.23;7.82;;;;;;;18.81;62.50;102065.19;6096897;19;20196;-79
2023/05/21 08:48:13;;;;;;;14.70;7.90;;;;;;;18.74;62.36;102058.47;6089208;19;20011;-80
2023/05/21 08:50:20;;;;;;;14.48;8.50;;;;;;;18.76;62.04;102053.94;6099037;19;20005;-80
2023/05/21 08:52:30;;;;;;;11.88;8.05;;;;;;;19.18;61.63;102055.13;6097697;19;20014;-79
2023/05/21 08:54:38;;;;;;;18.20;9.10;;;;;;;19.21;61.13;102054.94;6104812;19;20530;-79
2023/05/21 08:56:48;;;;;;;13.23;7.55;;;;;;;19.32;61.05;102061.47;6106645;19;20601;-79
2023/05/21 08:58:54;;;;;;;13.95;7.60;;;;;;;19.24;61.02;102054.78;6102996;19;20055;-80
2023/05/21 09:00:59;;;;;;;13.77;7.43;;;;;;;19.46;61.25;102058.88;6104330;19;20015;-78
2023/05/21 09:03:09;;;;;;;15.30;7.55;;;;;;;19.37;60.52;102070.91;6106298;19;20384;-79
2023/05/21 09:05:18;;;;;;;15.10;7.43;;;;;;;19.64;60.77;102063.13;6105372;19;20105;-78
2023/05/21 09:07:28;;;;;;;14.48;7.63;;;;;;;19.70;59.99;102061.94;6103314;19;20002;-80
2023/05/21 09:09:49;;;;;;;13.40;7.25;;;;;;;20.02;59.93;102051.97;6105268;19;20022;-80
2023/05/21 09:11:57;;;;;;;14.68;7.60;;;;;;;20.20;58.28;102043.81;6105947;19;20039;-80
2023/05/21 09:14:04;;;;;;;14.05;7.93;;;;;;;20.24;57.00;102039.97;6105204;19;20026;-81
2023/05/21 09:16:11;;;;;;;13.48;7.38;;;;;;;20.26;56.22;102049.59;6107841;19;20634;-80
2023/05/21 09:18:17;;;;;;;15.85;7.50;;;;;;;20.15;56.01;102047.59;6105091;19;20120;-80
2023/05/21 09:20:29;;;;;;;13.10;6.63;;;;;;;20.12;56.70;102046.94;6107814;19;20011;-80
2023/05/21 09:22:35;;;;;;;17.95;8.00;;;;;;;20.14;56.70;102039.69;6104992;19;20518;-76
2023/05/21 09:24:46;;;;;;;12.95;7.03;;;;;;;20.03;56.50;102053.69;6105319;19;20451;-76
2023/05/21 09:26:57;;;;;;;13.02;6.40;;;;;;;20.03;56.09;102040.34;6105958;19;20380;-76
2023/05/21 09:29:02;;;;;;;12.55;6.78;;;;;;;19.90;56.14;102045.56;6105577;19;20010;-76
2023/05/21 09:31:14;;;;;;;14.05;6.97;;;;;;;20.31;56.02;102039.50;6105321;19;20389;-76
2023/05/21 09:33:35;;;;;;;13.57;6.93;;;;;;;20.28;54.94;102042.38;6104997;19;20003;-76
2023/05/21 09:35:46;;;;;;;13.73;7.28;;;;;;;20.25;54.77;102028.34;6101605;19;20053;-76
2023/05/21 09:37:56;;;;;;;12.20;7.15;;;;;;;20.13;55.22;102036.16;6105284;19;20003;-76
2023/05/21 09:40:04;;;;;;;15.77;7.03;;;;;;;20.09;55.33;102037.31;6104181;19;20514;-76
2023/05/21 09:42:09;;;;;;;13.05;6.93;;;;;;;20.44;54.84;102036.06;6106340;19;20010;-76
2023/05/21 09:44:15;;;;;;;15.73;7.10;;;;;;;20.51;54.32;102038.25;6111007;19;20574;-76